Time;durP1;ratioP1;P1;durP2;ratioP2;P2;SDS_P1;SDS_P2;PMS_P1;PMS_P2;Temp;Humidity;BMP_temperature;BMP_pressure;BME280_temperature;BME280_humidity;BME280_pressure;Samples;Min_cycle;Max_cycle;Signal;HPM_P1;HPM_P2
2024/04/03 00:02:25;;;;;;;0.55;0.55;;;;;;;10.79;100.00;99885.63;4426703;32;20173;-86
2024/04/03 00:04:50;;;;;;;1.80;1.10;;;;;;;10.80;100.00;99889.09;4426120;32;20242;-86
2024/04/03 00:07:17;;;;;;;0.98;0.62;;;;;;;10.77;100.00;99877.03;4424384;32;20149;-87
2024/04/03 00:09:42;;;;;;;1.25;0.70;;;;;;;10.68;100.00;99861.31;4427073;32;20160;-86
2024/04/03 00:12:08;;;;;;;0.45;0.45;;;;;;;10.78;100.00;99876.03;4424373;32;20161;-86
2024/04/03 00:14:34;;;;;;;0.70;0.70;;;;;;;10.78;100.00;99869.91;4426207;32;20589;-86
2024/04/03 00:17:01;;;;;;;2.45;1.10;;;;;;;10.78;100.00;99869.91;4428097;32;20191;-87
2024/04/03 00:19:26;;;;;;;3.33;1.50;;;;;;;10.76;100.00;99866.59;4425904;32;20150;-86
2024/04/03 00:21:52;;;;;;;2.33;1.08;;;;;;;10.74;100.00;99852.66;4423756;32;20211;-86
2024/04/03 00:24:18;;;;;;;5.20;1.25;;;;;;;10.72;100.00;99854.69;4425294;32;20239;-86
2024/04/03 00:26:44;;;;;;;1.25;0.65;;;;;;;10.72;100.00;99852.03;4420133;32;20236;-86
2024/04/03 00:29:11;;;;;;;0.93;0.90;;;;;;;10.71;100.00;99855.69;4427437;32;20148;-86
2024/04/03 00:31:38;;;;;;;5.40;1.45;;;;;;;10.71;100.00;99847.72;4424446;32;20247;-86
2024/04/03 00:34:03;;;;;;;0.70;0.70;;;;;;;10.69;100.00;99852.38;4427808;32;20165;-86
2024/04/03 00:36:30;;;;;;;0.43;0.43;;;;;;;10.68;100.00;99846.22;4426883;32;20244;-86
2024/04/03 00:38:56;;;;;;;0.62;0.55;;;;;;;10.68;100.00;99843.56;4426733;32;20168;-86
2024/04/03 00:41:22;;;;;;;2.37;0.90;;;;;;;10.66;100.00;99843.75;4425704;32;20175;-86
2024/04/03 00:43:48;;;;;;;0.57;0.57;;;;;;;10.66;100.00;99845.56;4424102;32;20200;-86
2024/04/03 00:46:15;;;;;;;0.70;0.50;;;;;;;10.66;100.00;99833.13;4425621;32;20188;-87
2024/04/03 00:48:42;;;;;;;0.95;0.47;;;;;;;10.67;100.00;99833.97;4424723;32;20145;-87
2024/04/03 00:51:10;;;;;;;1.10;1.00;;;;;;;10.58;100.00;99819.09;4425422;32;20160;-86
2024/04/03 00:53:37;;;;;;;0.57;0.40;;;;;;;10.65;100.00;99831.47;4411005;32;20180;-86
2024/04/03 00:56:06;;;;;;;0.98;0.70;;;;;;;10.67;100.00;99831.31;4425792;32;20517;-87
2024/04/03 00:58:32;;;;;;;0.70;0.70;;;;;;;10.66;100.00;99827.84;4423630;32;20165;-86
2024/04/03 01:00:58;;;;;;;1.08;0.85;;;;;;;10.65;100.00;99817.37;4422036;32;20165;-88
2024/04/03 01:03:24;;;;;;;0.73;0.47;;;;;;;10.54;100.00;99809.84;4423381;32;20238;-86
2024/04/03 01:06:01;;;;;;;0.85;0.85;;;;;;;10.64;100.00;99821.91;4425306;32;20188;-86
2024/04/03 01:08:26;;;;;;;1.17;0.80;;;;;;;10.61;100.00;99816.09;4413141;32;20188;-86
2024/04/03 01:10:52;;;;;;;0.60;0.60;;;;;;;10.64;100.00;99816.59;4411499;32;20564;-86
2024/04/03 01:13:18;;;;;;;1.23;0.60;;;;;;;10.53;100.00;99794.94;4424145;32;20276;-87
2024/04/03 01:15:44;;;;;;;0.62;0.62;;;;;;;10.62;100.00;99815.09;4421417;32;20665;-86
2024/04/03 01:18:10;;;;;;;1.30;0.50;;;;;;;10.63;100.00;99814.94;4423274;32;20665;-87
2024/04/03 01:20:36;;;;;;;0.60;0.60;;;;;;;10.64;100.00;99813.94;4426693;32;20218;-86
2024/04/03 01:23:02;;;;;;;0.65;0.65;;;;;;;10.63;100.00;99806.16;4430707;32;20196;-87
2024/04/03 01:25:29;;;;;;;0.62;0.62;;;;;;;10.64;100.00;99799.84;4415360;32;20256;-87
2024/04/03 01:27:55;;;;;;;1.20;0.65;;;;;;;10.64;100.00;99797.19;4425380;32;20227;-86
2024/04/03 01:30:21;;;;;;;0.75;0.75;;;;;;;10.65;100.00;99796.16;4423188;32;20584;-87
2024/04/03 01:32:46;;;;;;;1.33;1.23;;;;;;;10.65;100.00;99781.06;4418596;32;20184;-86
2024/04/03 01:35:12;;;;;;;0.40;0.40;;;;;;;10.62;100.00;99789.41;4419544;32;20160;-86
2024/04/03 01:37:38;;;;;;;0.73;0.73;;;;;;;10.59;100.00;99789.75;4422485;32;20250;-86
2024/04/03 01:40:05;;;;;;;0.90;0.73;;;;;;;10.48;100.00;99765.47;4426969;32;20257;-86
2024/04/03 01:42:31;;;;;;;0.60;0.60;;;;;;;10.55;100.00;99788.47;4429673;32;20544;-86
2024/04/03 01:44:57;;;;;;;0.50;0.50;;;;;;;10.52;100.00;99775.53;4408088;32;20709;-86
2024/04/03 01:47:23;;;;;;;1.48;0.80;;;;;;;10.51;100.00;99771.22;4421800;32;20212;-86
2024/04/03 01:49:53;;;;;;;0.60;0.60;;;;;;;10.40;100.00;99753.09;4422495;32;20601;-86
2024/04/03 01:52:18;;;;;;;1.98;0.98;;;;;;;10.48;100.00;99758.34;4419383;32;20232;-87
2024/04/03 01:54:44;;;;;;;0.85;0.82;;;;;;;10.47;100.00;99769.94;4429265;32;20214;-87
2024/04/03 01:57:10;;;;;;;0.77;0.75;;;;;;;10.42;100.00;99756.41;4422539;32;20161;-87
2024/04/03 01:59:37;;;;;;;0.45;0.45;;;;;;;10.41;100.00;99757.37;4425426;32;20156;-86
2024/04/03 02:02:03;;;;;;;0.40;0.40;;;;;;;10.41;100.00;99753.91;4424897;32;20162;-85
2024/04/03 02:04:29;;;;;;;0.62;0.62;;;;;;;10.39;100.00;99764.69;4423832;32;20461;-86
2024/04/03 02:06:54;;;;;;;0.50;0.50;;;;;;;10.38;100.00;99770.97;4424366;32;20321;-86
2024/04/03 02:09:20;;;;;;;1.73;0.70;;;;;;;10.36;100.00;99758.94;4425974;32;20604;-86
2024/04/03 02:11:46;;;;;;;1.00;1.00;;;;;;;10.35;100.00;99758.09;4426051;32;20258;-86
2024/04/03 02:14:12;;;;;;;0.40;0.40;;;;;;;10.36;100.00;99762.41;4411736;32;20168;-87
2024/04/03 02:16:41;;;;;;;1.17;0.85;;;;;;;10.35;100.00;99757.28;4425956;32;20247;-85
2024/04/03 02:19:06;;;;;;;0.47;0.47;;;;;;;10.34;100.00;99760.91;4422160;32;20501;-86
2024/04/03 02:21:32;;;;;;;0.73;0.47;;;;;;;10.33;100.00;99756.59;4425122;32;20188;-86
2024/04/03 02:23:58;;;;;;;0.47;0.47;;;;;;;10.33;100.00;99748.66;4421785;32;20212;-86
2024/04/03 02:26:24;;;;;;;0.40;0.40;;;;;;;10.32;100.00;99747.00;4423412;32;20229;-87
2024/04/03 02:28:50;;;;;;;0.77;0.37;;;;;;;10.32;100.00;99741.69;4423584;32;20164;-86
2024/04/03 02:31:15;;;;;;;0.57;0.57;;;;;;;10.31;100.00;99737.38;4426207;32;20172;-87
2024/04/03 02:33:44;;;;;;;0.62;0.62;;;;;;;10.30;100.00;99728.63;4427479;32;20583;-86
2024/04/03 02:36:10;;;;;;;0.50;0.50;;;;;;;10.27;100.00;99735.09;4418304;32;20184;-86
2024/04/03 02:38:37;;;;;;;1.20;0.68;;;;;;;10.28;100.00;99741.25;4425107;32;20209;-87
2024/04/03 02:41:02;;;;;;;0.70;0.70;;;;;;;10.29;100.00;99734.94;4423918;32;20165;-86
2024/04/03 02:43:29;;;;;;;0.60;0.60;;;;;;;10.30;100.00;99730.47;4410158;32;20229;-86
2024/04/03 02:45:54;;;;;;;0.47;0.47;;;;;;;10.29;100.00;99731.47;4428038;32;20204;-86
2024/04/03 02:48:20;;;;;;;0.57;0.57;;;;;;;10.09;100.00;99715.16;4421969;32;20249;-86
2024/04/03 02:50:48;;;;;;;0.82;0.82;;;;;;;10.27;100.00;99743.06;4422583;32;20164;-86
2024/04/03 02:53:14;;;;;;;1.70;1.25;;;;;;;10.27;100.00;99750.19;4422579;32;20149;-86
2024/04/03 02:55:40;;;;;;;2.78;1.00;;;;;;;10.13;100.00;99735.81;4422903;32;20188;-86
2024/04/03 02:58:06;;;;;;;2.03;1.15;;;;;;;10.24;100.00;99756.66;4426838;32;20493;-86
2024/04/03 03:00:32;;;;;;;3.60;0.80;;;;;;;10.23;100.00;99752.34;4422411;32;20173;-86
2024/04/03 03:02:58;;;;;;;0.62;0.62;;;;;;;10.24;100.00;99746.03;4424284;32;20160;-86
2024/04/03 03:05:23;;;;;;;1.12;1.10;;;;;;;10.25;100.00;99738.94;4424535;32;20184;-86
2024/04/03 03:07:50;;;;;;;0.80;0.80;;;;;;;10.16;100.00;99716.94;4425023;32;20176;-86
2024/04/03 03:10:16;;;;;;;0.43;0.43;;;;;;;10.25;100.00;99731.78;4423043;32;20192;-85
2024/04/03 03:12:42;;;;;;;1.52;0.45;;;;;;;10.25;100.00;99723.00;4423660;32;20231;-87
2024/04/03 03:15:07;;;;;;;0.88;0.88;;;;;;;10.23;100.00;99727.69;4424486;32;20634;-86
2024/04/03 03:17:33;;;;;;;1.42;0.60;;;;;;;10.21;100.00;99727.84;4425664;32;20184;-86
2024/04/03 03:19:59;;;;;;;0.55;0.55;;;;;;;10.20;100.00;99712.13;4430232;32;20299;-86
2024/04/03 03:22:25;;;;;;;0.60;0.60;;;;;;;10.18;100.00;99707.00;4421647;32;20282;-86
2024/04/03 03:24:51;;;;;;;0.60;0.60;;;;;;;10.17;100.00;99710.63;4426909;32;20211;-86
2024/04/03 03:27:17;;;;;;;0.85;0.43;;;;;;;10.14;100.00;99704.84;4426993;32;20160;-86
2024/04/03 03:29:43;;;;;;;0.37;0.37;;;;;;;10.11;100.00;99703.34;4426528;32;20253;-86
2024/04/03 03:32:09;;;;;;;0.93;0.60;;;;;;;10.09;100.00;99701.91;4427754;32;20248;-86
2024/04/03 03:34:34;;;;;;;1.05;0.80;;;;;;;10.08;100.00;99692.28;4426136;32;20183;-86
2024/04/03 03:37:00;;;;;;;1.37;0.90;;;;;;;10.05;100.00;99688.16;4426517;32;20239;-87
2024/04/03 03:39:26;;;;;;;0.85;0.57;;;;;;;9.82;100.00;99653.69;4419804;32;20224;-86
2024/04/03 03:41:53;;;;;;;0.50;0.50;;;;;;;10.03;100.00;99673.44;4424846;32;20222;-86
2024/04/03 03:44:19;;;;;;;1.37;0.80;;;;;;;10.03;100.00;99676.91;4426419;32;20220;-86
2024/04/03 03:46:45;;;;;;;0.82;0.82;;;;;;;10.03;100.00;99684.03;4420440;32;20161;-86
2024/04/03 03:54:39;;;;;;;2.92;0.62;;;;;;;10.01;100.00;99689.53;4426991;32;20200;-86
2024/04/03 03:57:06;;;;;;;1.37;1.15;;;;;;;10.03;100.00;99691.97;4427950;32;20285;-86
2024/04/03 03:59:32;;;;;;;0.70;0.70;;;;;;;10.03;100.00;99698.09;4425083;32;20172;-86
2024/04/03 04:01:58;;;;;;;0.50;0.45;;;;;;;10.01;100.00;99686.03;4431818;32;20254;-86
2024/04/03 04:04:24;;;;;;;0.73;0.73;;;;;;;9.97;100.00;99688.19;4419960;32;20161;-86
2024/04/03 04:06:50;;;;;;;0.50;0.50;;;;;;;9.95;100.00;99690.22;4413517;32;20220;-85
2024/04/03 04:09:15;;;;;;;0.62;0.62;;;;;;;9.94;100.00;99693.03;4417673;32;20785;-86
2024/04/03 04:11:41;;;;;;;0.47;0.47;;;;;;;9.91;100.00;99682.78;4422785;32;20152;-86
2024/04/03 04:14:08;;;;;;;0.77;0.77;;;;;;;9.89;100.00;99686.41;4425632;32;20168;-86
2024/04/03 04:16:34;;;;;;;0.95;0.80;;;;;;;9.88;100.00;99682.16;4424352;32;20153;-87
2024/04/03 04:18:59;;;;;;;0.60;0.52;;;;;;;9.89;100.00;99680.31;4423852;32;20516;-87
2024/04/03 04:21:26;;;;;;;1.75;0.73;;;;;;;9.88;100.00;99681.31;4426176;32;20176;-86
2024/04/03 04:23:52;;;;;;;1.50;0.77;;;;;;;9.88;100.00;99679.50;4426592;32;20157;-86
2024/04/03 04:26:18;;;;;;;1.17;0.85;;;;;;;9.89;100.00;99677.66;4424943;32;20168;-86
2024/04/03 04:28:43;;;;;;;0.95;0.95;;;;;;;9.89;100.00;99678.47;4424921;32;20172;-86
2024/04/03 04:31:10;;;;;;;1.12;0.75;;;;;;;9.91;100.00;99674.84;4429368;32;20196;-85
2024/04/03 04:33:37;;;;;;;0.70;0.70;;;;;;;9.89;100.00;99675.00;4424204;32;20206;-85
2024/04/03 04:36:04;;;;;;;3.15;1.05;;;;;;;9.89;100.00;99675.81;4424596;32;20265;-86
2024/04/03 04:38:30;;;;;;;0.73;0.73;;;;;;;9.90;100.00;99674.00;4423789;32;20212;-86
2024/04/03 04:40:57;;;;;;;0.50;0.50;;;;;;;9.82;100.00;99658.16;4414145;32;20226;-86
2024/04/03 04:43:23;;;;;;;1.02;0.73;;;;;;;9.89;100.00;99673.19;4423921;32;20153;-86
2024/04/03 04:45:57;;;;;;;0.32;0.32;;;;;;;9.89;100.00;99662.59;4419622;32;20165;-86
2024/04/03 04:48:24;;;;;;;1.05;0.70;;;;;;;9.89;100.00;99662.59;4425284;32;20227;-85
2024/04/03 04:50:51;;;;;;;0.52;0.52;;;;;;;9.71;100.00;99632.91;4429494;32;20206;-86
2024/04/03 04:53:17;;;;;;;0.75;0.75;;;;;;;9.88;100.00;99670.72;4424068;32;20212;-86
2024/04/03 04:55:52;;;;;;;0.82;0.82;;;;;;;9.87;100.00;99654.00;4426497;32;20172;-86
2024/04/03 04:58:18;;;;;;;0.68;0.68;;;;;;;9.85;100.00;99656.00;4424360;32;20191;-86
2024/04/03 05:00:43;;;;;;;1.12;1.00;;;;;;;9.87;100.00;99656.66;4428129;32;20255;-86
2024/04/03 05:03:09;;;;;;;0.77;0.77;;;;;;;9.86;100.00;99646.22;4423203;32;20627;-86
2024/04/03 05:05:36;;;;;;;1.25;1.20;;;;;;;9.86;100.00;99652.34;4423338;32;20635;-85
2024/04/03 05:08:03;;;;;;;0.40;0.40;;;;;;;9.85;100.00;99645.41;4409941;32;20215;-86
2024/04/03 05:10:30;;;;;;;1.02;0.73;;;;;;;9.86;100.00;99640.91;4412058;32;20242;-86
2024/04/03 05:12:55;;;;;;;0.62;0.47;;;;;;;9.84;100.00;99632.31;4422730;32;20498;-85
2024/04/03 05:15:22;;;;;;;0.75;0.70;;;;;;;9.88;100.00;99633.63;4426284;32;20172;-85
2024/04/03 05:17:49;;;;;;;0.73;0.73;;;;;;;9.91;100.00;99637.75;4427236;32;20164;-86
2024/04/03 05:20:15;;;;;;;0.75;0.75;;;;;;;9.91;100.00;99641.22;4426605;32;20160;-86
2024/04/03 05:22:41;;;;;;;0.80;0.80;;;;;;;9.94;100.00;99645.34;4424927;32;20180;-86
2024/04/03 05:25:07;;;;;;;1.75;0.80;;;;;;;9.95;100.00;99639.88;4424722;32;20185;-86
2024/04/03 05:27:33;;;;;;;1.05;1.05;;;;;;;9.96;100.00;99649.44;4427393;32;20209;-86
2024/04/03 05:29:59;;;;;;;0.43;0.43;;;;;;;9.94;100.00;99646.19;4425798;32;20218;-86
2024/04/03 05:32:25;;;;;;;0.55;0.55;;;;;;;9.94;100.00;99646.19;4424553;32;20203;-86
2024/04/03 05:34:51;;;;;;;0.50;0.50;;;;;;;9.94;100.00;99648.00;4425593;32;20165;-86
2024/04/03 05:37:16;;;;;;;0.68;0.68;;;;;;;9.94;100.00;99648.00;4420549;32;20609;-85
2024/04/03 05:39:43;;;;;;;0.60;0.60;;;;;;;9.95;100.00;99647.00;4424843;32;20204;-86
2024/04/03 05:42:09;;;;;;;0.77;0.77;;;;;;;9.95;100.00;99644.34;4421318;32;20172;-85
2024/04/03 05:44:34;;;;;;;0.80;0.80;;;;;;;9.95;100.00;99641.72;4409354;32;20291;-88
2024/04/03 05:47:00;;;;;;;1.45;0.65;;;;;;;9.82;100.00;99623.72;4426847;32;20255;-87
2024/04/03 05:49:26;;;;;;;1.50;1.05;;;;;;;9.95;100.00;99647.00;4427220;32;20510;-87
2024/04/03 05:51:52;;;;;;;1.35;0.98;;;;;;;9.95;100.00;99642.53;4428869;32;20176;-86
2024/04/03 05:54:18;;;;;;;0.60;0.60;;;;;;;9.96;100.00;99646.81;4424233;32;20263;-87
2024/04/03 05:56:44;;;;;;;0.88;0.88;;;;;;;9.95;100.00;99652.31;4424082;32;20201;-86
2024/04/03 05:59:10;;;;;;;0.52;0.50;;;;;;;9.97;100.00;99651.09;4424849;32;20211;-86
2024/04/03 06:01:36;;;;;;;2.15;1.20;;;;;;;9.98;100.00;99644.81;4413918;32;20189;-86
2024/04/03 06:04:02;;;;;;;0.73;0.50;;;;;;;9.99;100.00;99645.63;4424714;32;20277;-88
2024/04/03 06:06:28;;;;;;;0.70;0.70;;;;;;;10.00;100.00;99652.59;4422522;32;20192;-86
2024/04/03 06:08:54;;;;;;;1.35;0.80;;;;;;;10.01;100.00;99655.06;4427062;32;20580;-86
2024/04/03 06:11:19;;;;;;;0.70;0.70;;;;;;;10.05;100.00;99652.88;4424914;32;20224;-88
2024/04/03 06:13:46;;;;;;;1.30;1.20;;;;;;;10.06;100.00;99647.41;4426690;32;20192;-87
2024/04/03 06:16:12;;;;;;;1.17;1.10;;;;;;;10.09;100.00;99648.91;4418649;32;20192;-87
2024/04/03 06:18:37;;;;;;;0.60;0.60;;;;;;;10.12;100.00;99652.00;4426676;32;20226;-87
2024/04/03 06:21:11;;;;;;;1.35;0.88;;;;;;;10.15;100.00;99650.84;4423761;32;20241;-87
2024/04/03 06:23:37;;;;;;;1.02;0.95;;;;;;;10.18;100.00;99642.53;4410604;32;20252;-87
2024/04/03 06:26:03;;;;;;;0.80;0.80;;;;;;;10.19;100.00;99646.84;4423136;32;20577;-86
2024/04/03 06:28:28;;;;;;;1.75;1.00;;;;;;;10.15;100.00;99634.94;4424492;32;20521;-87
2024/04/03 06:30:55;;;;;;;1.45;1.30;;;;;;;10.24;100.00;99652.44;4407566;32;20244;-86
2024/04/03 06:33:21;;;;;;;3.70;0.73;;;;;;;10.28;100.00;99659.06;4408853;32;20181;-87
2024/04/03 06:35:47;;;;;;;0.82;0.82;;;;;;;10.30;100.00;99653.59;4409480;32;20503;-86
2024/04/03 06:38:13;;;;;;;0.90;0.90;;;;;;;10.33;100.00;99656.69;4426933;32;20201;-86
2024/04/03 06:40:39;;;;;;;0.60;0.60;;;;;;;10.36;100.00;99660.81;4426067;32;20152;-87
2024/04/03 06:43:06;;;;;;;1.35;1.27;;;;;;;10.37;100.00;99658.00;4426035;32;20190;-87
2024/04/03 06:45:32;;;;;;;0.65;0.65;;;;;;;10.40;100.00;99656.81;4427107;32;20195;-86
2024/04/03 06:47:59;;;;;;;0.60;0.60;;;;;;;10.41;100.00;99661.09;4417797;32;20235;-86
2024/04/03 06:50:25;;;;;;;1.83;1.08;;;;;;;10.41;100.00;99663.75;4423608;32;20222;-86
2024/04/03 06:52:51;;;;;;;0.90;0.90;;;;;;;10.41;100.00;99667.25;4409297;32;20244;-86
2024/04/03 06:55:16;;;;;;;1.02;0.93;;;;;;;10.41;100.00;99661.94;4424049;32;20176;-88
2024/04/03 06:57:43;;;;;;;1.85;0.88;;;;;;;10.03;100.00;99604.53;4427462;32;20180;-87
2024/04/03 07:00:10;;;;;;;1.40;0.70;;;;;;;10.18;100.00;99627.47;4418010;32;20165;-87
2024/04/03 07:02:36;;;;;;;0.77;0.77;;;;;;;10.45;100.00;99662.38;4421961;32;20243;-87
2024/04/03 07:05:03;;;;;;;0.75;0.75;;;;;;;10.47;100.00;99666.53;4421844;32;20231;-86
2024/04/03 07:07:29;;;;;;;0.80;0.80;;;;;;;10.49;100.00;99661.03;4422112;32;20281;-86
2024/04/03 07:09:58;;;;;;;0.45;0.45;;;;;;;10.50;100.00;99671.47;4422022;32;20168;-87
2024/04/03 07:12:24;;;;;;;1.15;1.15;;;;;;;10.36;100.00;99647.56;4424763;32;20191;-87
2024/04/03 07:14:50;;;;;;;2.97;1.00;;;;;;;10.50;100.00;99673.31;4424228;32;20180;-86
2024/04/03 07:17:16;;;;;;;0.77;0.77;;;;;;;10.48;100.00;99676.13;4425333;32;20236;-87
2024/04/03 07:19:43;;;;;;;0.50;0.50;;;;;;;10.36;100.00;99658.16;4425237;32;20585;-87
2024/04/03 07:22:09;;;;;;;0.57;0.52;;;;;;;10.34;100.00;99655.69;4424375;32;20191;-87
2024/04/03 07:24:35;;;;;;;0.57;0.52;;;;;;;10.47;100.00;99681.59;4424067;32;20215;-86
2024/04/03 07:27:01;;;;;;;2.17;1.15;;;;;;;10.46;100.00;99680.78;4423322;32;20571;-86
2024/04/03 07:29:26;;;;;;;2.10;0.73;;;;;;;10.46;100.00;99691.38;4425060;32;20226;-87
2024/04/03 07:31:52;;;;;;;1.73;0.98;;;;;;;10.46;100.00;99686.09;4428218;32;20233;-87
2024/04/03 07:34:18;;;;;;;1.20;0.93;;;;;;;10.46;100.00;99695.84;4424018;32;20156;-87
2024/04/03 07:36:44;;;;;;;1.10;1.02;;;;;;;10.46;100.00;99702.00;4424188;32;20149;-86
2024/04/03 07:39:10;;;;;;;0.70;0.70;;;;;;;10.48;100.00;99704.47;4424348;32;20188;-87
2024/04/03 07:41:39;;;;;;;0.90;0.90;;;;;;;10.47;100.00;99700.16;4417926;32;20149;-86
2024/04/03 07:44:04;;;;;;;2.87;1.20;;;;;;;10.48;100.00;99712.44;4423004;32;20176;-87
2024/04/03 07:46:30;;;;;;;1.80;1.20;;;;;;;10.50;100.00;99713.09;4423716;32;20199;-86
2024/04/03 07:48:56;;;;;;;1.00;1.00;;;;;;;10.51;100.00;99712.88;4425975;32;20179;-86
2024/04/03 07:51:22;;;;;;;1.65;1.12;;;;;;;10.52;100.00;99714.53;4423441;32;20165;-86
2024/04/03 07:53:48;;;;;;;0.65;0.65;;;;;;;10.53;100.00;99713.53;4416939;32;20542;-87
2024/04/03 07:56:14;;;;;;;0.75;0.73;;;;;;;10.30;100.00;99667.66;4420430;32;20215;-86
2024/04/03 07:58:40;;;;;;;2.72;0.90;;;;;;;10.58;100.00;99715.66;4421770;32;20216;-87
2024/04/03 08:01:06;;;;;;;0.82;0.82;;;;;;;10.61;100.00;99721.44;4423145;32;20306;-87
2024/04/03 08:03:32;;;;;;;0.68;0.68;;;;;;;10.64;100.00;99718.44;4415063;32;20192;-86
2024/04/03 08:05:58;;;;;;;0.65;0.65;;;;;;;10.69;100.00;99731.16;4427841;32;20172;-88
2024/04/03 08:08:27;;;;;;;0.85;0.85;;;;;;;10.72;100.00;99730.00;4428659;32;20203;-86
2024/04/03 08:10:58;;;;;;;0.60;0.60;;;;;;;10.75;100.00;99724.31;4423754;32;20152;-86
2024/04/03 08:13:24;;;;;;;0.65;0.52;;;;;;;10.72;100.00;99725.47;4425865;32;20153;-87
2024/04/03 08:15:58;;;;;;;0.55;0.55;;;;;;;10.80;100.00;99735.19;4427539;32;20168;-87
2024/04/03 08:18:24;;;;;;;0.47;0.47;;;;;;;10.80;100.00;99730.72;4419675;32;20153;-88
2024/04/03 08:20:58;;;;;;;1.27;0.80;;;;;;;10.81;100.00;99732.38;4425651;32;20255;-87
2024/04/03 08:23:24;;;;;;;5.18;1.85;;;;;;;10.84;100.00;99737.34;4429630;32;20526;-87
2024/04/03 08:25:50;;;;;;;0.88;0.88;;;;;;;10.66;100.00;99705.81;4420445;32;20203;-86
2024/04/03 08:28:16;;;;;;;0.68;0.62;;;;;;;10.87;100.00;99739.63;4422633;32;20232;-86
2024/04/03 08:30:42;;;;;;;0.62;0.62;;;;;;;10.90;100.00;99733.13;4410385;32;20200;-87
2024/04/03 08:33:10;;;;;;;0.80;0.80;;;;;;;10.92;100.00;99731.16;4424766;32;20235;-87
2024/04/03 08:35:36;;;;;;;0.70;0.70;;;;;;;10.82;100.00;99711.97;4423892;32;20192;-86
2024/04/03 08:38:02;;;;;;;0.85;0.85;;;;;;;10.70;100.00;99686.88;4422985;32;20172;-87
2024/04/03 08:40:28;;;;;;;0.50;0.50;;;;;;;10.98;100.00;99730.41;4426803;32;20157;-87
2024/04/03 08:42:54;;;;;;;0.55;0.55;;;;;;;11.03;100.00;99722.72;4427016;32;20238;-86
2024/04/03 08:45:21;;;;;;;0.47;0.47;;;;;;;10.98;100.00;99711.84;4425687;32;20529;-86
2024/04/03 08:47:50;;;;;;;0.50;0.50;;;;;;;11.09;100.00;99723.84;4424598;32;20172;-86
2024/04/03 08:50:16;;;;;;;0.57;0.57;;;;;;;11.12;100.00;99726.97;4424165;32;20251;-86
2024/04/03 08:52:42;;;;;;;0.70;0.70;;;;;;;11.01;100.00;99703.50;4425512;32;20627;-86
2024/04/03 08:55:14;;;;;;;0.20;0.20;;;;;;;11.17;100.00;99721.94;4426787;32;20204;-86
2024/04/03 08:57:40;;;;;;;0.50;0.50;;;;;;;11.04;100.00;99688.06;4415702;32;20302;-87
2024/04/03 09:00:08;;;;;;;0.40;0.40;;;;;;;11.20;100.00;99708.28;4412671;32;20546;-87
2024/04/03 09:02:34;;;;;;;0.30;0.30;;;;;;;11.22;100.00;99713.41;4424232;32;21131;-87
2024/04/03 09:05:00;;;;;;;0.57;0.57;;;;;;;11.23;100.00;99715.06;4410548;32;20484;-87
2024/04/03 09:07:26;;;;;;;1.25;0.30;;;;;;;11.23;100.00;99712.41;4426682;32;20184;-88
2024/04/03 09:09:52;;;;;;;0.73;0.73;;;;;;;11.28;100.00;99713.50;4409538;32;20177;-86
2024/04/03 09:12:24;;;;;;;0.75;0.57;;;;;;;11.25;100.00;99703.25;4425284;32;20237;-87
2024/04/03 09:14:50;;;;;;;0.90;0.68;;;;;;;11.33;100.00;99702.34;4422701;32;20172;-87
2024/04/03 09:17:17;;;;;;;0.95;0.70;;;;;;;11.36;100.00;99702.78;4426235;32;20186;-86
2024/04/03 09:19:49;;;;;;;0.57;0.52;;;;;;;11.42;100.00;99698.56;4423372;32;20238;-87
2024/04/03 09:22:17;;;;;;;0.62;0.62;;;;;;;11.48;100.00;99691.72;4424260;32;20185;-86
2024/04/03 09:24:43;;;;;;;0.62;0.62;;;;;;;11.50;100.00;99695.00;4426331;32;20180;-87
2024/04/03 09:27:10;;;;;;;0.50;0.50;;;;;;;11.53;100.00;99684.03;4427077;32;20620;-88
2024/04/03 09:29:36;;;;;;;0.30;0.30;;;;;;;11.57;100.00;99675.50;4426613;32;20184;-87
2024/04/03 09:32:03;;;;;;;0.55;0.55;;;;;;;11.50;100.00;99660.47;4425992;32;20191;-86
2024/04/03 09:34:29;;;;;;;1.23;0.62;;;;;;;11.70;100.00;99664.19;4425229;32;20156;-86
2024/04/03 09:36:56;;;;;;;1.25;0.70;;;;;;;11.74;100.00;99674.31;4427466;32;20218;-86
2024/04/03 09:39:23;;;;;;;0.47;0.47;;;;;;;11.82;100.00;99671.53;4425752;32;20469;-87
2024/04/03 09:41:50;;;;;;;0.43;0.43;;;;;;;11.89;100.00;99665.50;4411710;32;20551;-88
2024/04/03 09:44:19;;;;;;;0.60;0.60;;;;;;;11.95;100.00;99667.41;4424263;32;20180;-87
2024/04/03 09:46:51;;;;;;;0.80;0.60;;;;;;;11.89;100.00;99641.56;4425278;32;20157;-86
2024/04/03 09:49:21;;;;;;;0.30;0.30;;;;;;;12.07;100.00;99664.06;4428090;32;20153;-87
2024/04/03 09:51:47;;;;;;;0.50;0.50;;;;;;;12.14;100.00;99661.47;4421061;32;20234;-87
2024/04/03 09:54:14;;;;;;;0.43;0.43;;;;;;;12.22;100.00;99656.84;4409002;32;20630;-86
2024/04/03 09:56:41;;;;;;;0.45;0.37;;;;;;;12.28;100.00;99657.91;4425860;32;20148;-87
2024/04/03 09:59:07;;;;;;;0.43;0.43;;;;;;;12.36;100.00;99655.12;4404782;32;20240;-87
2024/04/03 10:01:35;;;;;;;1.10;1.00;;;;;;;12.44;100.00;99657.66;4411353;32;20574;-87
2024/04/03 10:04:02;;;;;;;0.40;0.40;;;;;;;12.42;100.00;99622.44;4425581;32;20209;-88
2024/04/03 10:06:28;;;;;;;0.50;0.50;;;;;;;12.59;100.00;99642.41;4419144;32;20212;-86
2024/04/03 10:08:54;;;;;;;1.17;0.37;;;;;;;12.68;100.00;99635.13;4409899;32;20646;-87
2024/04/03 10:11:20;;;;;;;0.40;0.40;;;;;;;12.74;100.00;99630.88;4410950;32;20273;-87
2024/04/03 10:13:47;;;;;;;0.40;0.40;;;;;;;12.76;100.00;99619.03;4426613;32;20206;-87
2024/04/03 10:16:14;;;;;;;2.30;0.47;;;;;;;12.81;100.00;99611.25;4408186;32;20531;-86
2024/04/03 10:18:42;;;;;;;0.65;0.50;;;;;;;12.84;100.00;99605.56;4427640;32;20234;-86
2024/04/03 10:21:09;;;;;;;0.25;0.25;;;;;;;12.89;100.00;99616.44;4425664;32;20248;-86
2024/04/03 10:23:40;;;;;;;0.45;0.45;;;;;;;12.90;100.00;99604.78;4408074;32;20223;-86
2024/04/03 10:26:07;;;;;;;0.22;0.22;;;;;;;12.91;100.00;99606.44;4423745;32;20211;-87
2024/04/03 10:28:33;;;;;;;0.50;0.40;;;;;;;12.89;100.00;99607.63;4411003;32;20196;-87
2024/04/03 10:30:59;;;;;;;0.37;0.37;;;;;;;12.88;100.00;99613.97;4410193;32;20196;-87
2024/04/03 10:33:28;;;;;;;0.40;0.40;;;;;;;12.87;100.00;99612.31;4424144;32;20152;-86
2024/04/03 10:35:54;;;;;;;0.25;0.25;;;;;;;12.78;100.00;99590.37;4422776;32;20206;-86
2024/04/03 10:38:20;;;;;;;0.43;0.35;;;;;;;12.85;100.00;99601.88;4418633;32;20200;-87
2024/04/03 10:40:47;;;;;;;1.27;0.50;;;;;;;12.87;100.00;99605.16;4410762;32;20566;-87
2024/04/03 10:43:13;;;;;;;0.60;0.60;;;;;;;12.59;100.00;99551.13;4426073;32;20191;-87
2024/04/03 10:45:38;;;;;;;0.20;0.20;;;;;;;12.78;100.00;99584.22;4423879;32;20195;-87
2024/04/03 10:48:09;;;;;;;0.75;0.43;;;;;;;12.87;100.00;99602.50;4425947;32;20215;-88
2024/04/03 10:50:36;;;;;;;0.55;0.55;;;;;;;12.60;100.00;99550.94;4425963;32;20307;-87
2024/04/03 10:53:02;;;;;;;0.47;0.40;;;;;;;12.88;100.00;99614.78;4425536;32;20210;-86
2024/04/03 10:55:30;;;;;;;0.73;0.73;;;;;;;12.88;100.00;99608.66;4423690;32;20171;-87
2024/04/03 10:58:00;;;;;;;0.40;0.40;;;;;;;12.88;100.00;99613.97;4422750;32;20164;-86
2024/04/03 11:00:32;;;;;;;0.40;0.35;;;;;;;12.87;100.00;99621.13;4428685;32;20164;-89
2024/04/03 11:02:59;;;;;;;0.65;0.65;;;;;;;12.89;100.00;99621.75;4417923;32;20208;-88
2024/04/03 11:05:27;;;;;;;0.35;0.35;;;;;;;12.91;100.00;99616.25;4424643;32;20192;-87
2024/04/03 11:07:53;;;;;;;2.35;0.60;;;;;;;12.91;100.00;99621.56;4409267;32;20643;-86
2024/04/03 11:10:20;;;;;;;0.85;0.45;;;;;;;12.92;100.00;99625.88;4423678;32;20460;-87
2024/04/03 11:12:47;;;;;;;0.30;0.30;;;;;;;12.67;100.00;99574.94;4426059;32;20198;-87
2024/04/03 11:15:15;;;;;;;0.25;0.25;;;;;;;12.92;100.00;99605.41;4395258;32;20229;-87
2024/04/03 11:17:41;;;;;;;0.25;0.25;;;;;;;12.93;100.00;99612.34;4425089;32;20193;-86
2024/04/03 11:20:08;;;;;;;0.30;0.30;;;;;;;12.77;100.00;99575.44;4410386;32;20244;-87
2024/04/03 11:22:34;;;;;;;3.00;0.62;;;;;;;12.92;100.00;99617.91;4411017;32;20238;-87
2024/04/03 11:25:01;;;;;;;0.17;0.17;;;;;;;12.92;100.00;99618.72;4411139;32;20203;-88
2024/04/03 11:27:27;;;;;;;0.35;0.22;;;;;;;12.90;100.00;99615.44;4423023;32;20156;-88
2024/04/03 11:29:53;;;;;;;0.40;0.40;;;;;;;12.89;100.00;99615.62;4424064;32;20182;-87